Veedersburg, Indiana
Current Conditions -  °F | °C
As of 12:35 AM on Monday 22 Dec 2014 (Local Time) from KDNV Reporting Station
Clear Clear  
Wind Chill: 23°   Ceiling: Unl
Heat Index: 30°   Visibility: 7mi
Dew Point: 28°   Wind: 7mph
Humidity: 90%   Direction: 120°ESE
Pressure: 30"   Gusts: NA
Location:  40.11°N, 87.26°W
Report Text: KDNV 220535Z AUTO 12006KT 7SM CLR M01/M02 A3000 RMK AO2 T10101025
Loading
Personal Weather Stations






























Interactive Weather Map New forecast layout! Learn more

10-Day Weather Forecast

Advertisements
Track Severe Weather on mobile